Time;durP1;ratioP1;P1;durP2;ratioP2;P2;SDS_P1;SDS_P2;PMS_P1;PMS_P2;Temp;Humidity;BMP_temperature;BMP_pressure;BME280_temperature;BME280_humidity;BME280_pressure;Samples;Min_cycle;Max_cycle;Signal;HPM_P1;HPM_P2
2022/08/11 00:00:17;;;;;;;;;13.00;13.00;;;;;;;;4953352;28;46223;-64
2022/08/11 00:02:44;;;;;;;;;12.75;11.75;;;;;;;;4953430;28;45441;-64
2022/08/11 00:05:11;;;;;;;;;11.75;10.50;;;;;;;;4953724;28;45540;-64
2022/08/11 00:07:42;;;;;;;;;10.00;10.00;;;;;;;;4966428;28;45565;-64
2022/08/11 00:10:11;;;;;;;;;11.00;11.00;;;;;;;;4971912;28;45522;-64
2022/08/11 00:12:37;;;;;;;;;8.50;8.50;;;;;;;;4972396;28;45428;-64
2022/08/11 00:15:02;;;;;;;;;10.50;10.50;;;;;;;;4973025;28;45409;-64
2022/08/11 00:17:29;;;;;;;;;12.25;12.25;;;;;;;;4975634;28;45331;-64
2022/08/11 00:20:00;;;;;;;;;11.25;11.25;;;;;;;;4975661;28;46186;-64
2022/08/11 00:22:27;;;;;;;;;12.00;11.25;;;;;;;;4976323;28;45428;-64
2022/08/11 00:24:52;;;;;;;;;10.75;10.75;;;;;;;;4975274;28;45463;-64
2022/08/11 00:27:17;;;;;;;;;11.00;11.00;;;;;;;;4956451;28;45577;-64
2022/08/11 00:29:53;;;;;;;;;11.75;10.00;;;;;;;;4956005;28;45391;-64
2022/08/11 00:32:18;;;;;;;;;10.60;9.40;;;;;;;;4960216;28;45531;-64
2022/08/11 00:34:45;;;;;;;;;10.25;10.25;;;;;;;;4975826;28;45441;-64
2022/08/11 00:37:15;;;;;;;;;12.75;12.00;;;;;;;;4975880;28;45415;-64
2022/08/11 00:39:45;;;;;;;;;9.75;8.75;;;;;;;;4975818;28;45505;-64
2022/08/11 00:42:31;;;;;;;;;10.25;10.25;;;;;;;;4975535;28;45537;-64
2022/08/11 00:45:04;;;;;;;;;11.75;11.75;;;;;;;;4996779;28;45509;-64
2022/08/11 00:47:33;;;;;;;;;10.25;9.25;;;;;;;;4956522;28;45548;-64
2022/08/11 00:50:04;;;;;;;;;11.00;9.75;;;;;;;;4956166;28;45436;-64
2022/08/11 00:52:39;;;;;;;;;11.25;11.25;;;;;;;;4955008;28;45470;-64
2022/08/11 00:55:04;;;;;;;;;9.25;9.25;;;;;;;;4955273;28;45417;-64
2022/08/11 00:57:49;;;;;;;;;10.75;9.25;;;;;;;;4956761;28;45677;-64
2022/08/11 01:00:21;;;;;;;;;9.00;9.00;;;;;;;;4956222;28;46514;-64
2022/08/11 01:02:55;;;;;;;;;9.60;9.60;;;;;;;;4956260;28;45457;-64
2022/08/11 01:05:53;;;;;;;;;7.25;7.25;;;;;;;;4956600;28;45467;-64
2022/08/11 01:08:28;;;;;;;;;9.50;8.25;;;;;;;;5000107;28;45481;-64
2022/08/11 01:10:56;;;;;;;;;8.50;8.50;;;;;;;;4963605;28;45375;-64
2022/08/11 01:13:40;;;;;;;;;8.00;8.00;;;;;;;;4975809;28;45486;-64
2022/08/11 01:16:24;;;;;;;;;8.00;8.00;;;;;;;;4975939;28;45431;-64
2022/08/11 01:18:59;;;;;;;;;7.50;7.50;;;;;;;;4975418;28;45531;-64
2022/08/11 01:21:39;;;;;;;;;8.00;8.00;;;;;;;;4975502;28;45553;-64
2022/08/11 01:24:23;;;;;;;;;9.00;9.00;;;;;;;;4964337;28;45448;-64
2022/08/11 01:27:05;;;;;;;;;9.00;9.00;;;;;;;;4955232;28;45347;-64
2022/08/11 01:29:49;;;;;;;;;9.25;8.25;;;;;;;;4956231;28;45366;-64
2022/08/11 01:32:32;;;;;;;;;9.00;9.00;;;;;;;;4956636;28;46217;-64
2022/08/11 01:35:15;;;;;;;;;8.25;8.25;;;;;;;;4948427;28;45493;-64
2022/08/11 01:37:41;;;;;;;;;8.25;8.25;;;;;;;;4962256;28;45505;-64
2022/08/11 01:40:07;;;;;;;;;8.00;8.00;;;;;;;;4975468;28;45666;-64
2022/08/11 01:45:38;;;;;;;;;6.80;6.80;;;;;;;;4973051;28;45558;-64
2022/08/11 01:48:14;;;;;;;;;10.50;9.50;;;;;;;;4973665;28;45425;-64
2022/08/11 01:50:58;;;;;;;;;8.75;8.75;;;;;;;;4974992;28;45444;-64
2022/08/11 01:53:27;;;;;;;;;8.50;8.50;;;;;;;;4974653;28;46215;-64
2022/08/11 01:55:59;;;;;;;;;12.75;10.75;;;;;;;;4974735;28;45573;-64
2022/08/11 01:58:43;;;;;;;;;11.75;10.75;;;;;;;;4974811;28;45317;-64
2022/08/11 02:01:26;;;;;;;;;9.50;9.00;;;;;;;;4974741;28;45385;-64
2022/08/11 02:03:56;;;;;;;;;7.75;7.75;;;;;;;;4974524;28;45481;-64
2022/08/11 02:09:29;;;;;;;;;6.00;6.00;;;;;;;;4974726;28;45319;-64
2022/08/11 02:11:57;;;;;;;;;9.75;9.75;;;;;;;;4971463;28;45606;-64
2022/08/11 02:14:48;;;;;;;;;9.25;9.25;;;;;;;;4974254;28;45463;-64
2022/08/11 02:17:17;;;;;;;;;10.25;9.00;;;;;;;;4972582;28;45544;-64
2022/08/11 02:25:31;;;;;;;;;9.00;8.75;;;;;;;;4954798;28;45810;-64
2022/08/11 02:28:03;;;;;;;;;10.00;10.00;;;;;;;;4954985;28;45368;-64
2022/08/11 02:30:31;;;;;;;;;11.00;9.75;;;;;;;;4973259;28;45516;-65
2022/08/11 02:35:49;;;;;;;;;9.00;9.00;;;;;;;;4974344;28;45658;-64
2022/08/11 02:38:42;;;;;;;;;9.25;9.25;;;;;;;;4973759;28;45409;-64
2022/08/11 02:44:27;;;;;;;;;11.00;11.00;;;;;;;;4965003;28;45412;-64
2022/08/11 02:47:13;;;;;;;;;11.50;11.50;;;;;;;;4954893;28;46032;-64
2022/08/11 02:49:55;;;;;;;;;12.00;10.50;;;;;;;;4954836;28;45316;-64
2022/08/11 02:52:21;;;;;;;;;11.75;11.75;;;;;;;;4955152;28;45457;-64
2022/08/11 02:55:08;;;;;;;;;13.25;13.25;;;;;;;;4962172;28;45407;-64
2022/08/11 02:57:38;;;;;;;;;9.75;9.75;;;;;;;;4972620;28;60481;-64
2022/08/11 03:00:10;;;;;;;;;12.25;12.00;;;;;;;;4974485;28;45387;-64
2022/08/11 03:02:41;;;;;;;;;12.25;11.00;;;;;;;;4973893;28;45461;-64
2022/08/11 03:05:10;;;;;;;;;11.75;11.75;;;;;;;;4974677;28;45374;-64
2022/08/11 03:07:42;;;;;;;;;14.00;12.75;;;;;;;;4974041;28;46045;-64
2022/08/11 03:10:24;;;;;;;;;12.00;12.00;;;;;;;;4973724;28;45508;-64
2022/08/11 03:18:44;;;;;;;;;10.50;10.50;;;;;;;;4973916;28;45445;-64
2022/08/11 03:21:16;;;;;;;;;11.75;10.00;;;;;;;;4973361;28;45442;-64
2022/08/11 03:23:47;;;;;;;;;11.00;11.00;;;;;;;;4974964;28;45576;-64
2022/08/11 03:26:21;;;;;;;;;10.50;10.50;;;;;;;;4974115;28;45401;-64
2022/08/11 03:29:00;;;;;;;;;11.25;11.25;;;;;;;;4973858;28;45456;-64
2022/08/11 03:31:49;;;;;;;;;14.50;13.25;;;;;;;;4973656;28;45480;-64
2022/08/11 03:34:17;;;;;;;;;11.25;11.00;;;;;;;;4970905;28;45422;-64
2022/08/11 03:37:47;;;;;;;;;10.00;10.00;;;;;;;;4956792;28;45395;-64
2022/08/11 03:40:02;;;;;;;;;11.25;11.25;;;;;;;;4986551;28;46027;-64
2022/08/11 03:42:46;;;;;;;;;11.50;11.50;;;;;;;;4963321;28;45458;-65
2022/08/11 03:45:11;;;;;;;;;10.25;10.25;;;;;;;;4973809;28;45475;-65
2022/08/11 03:47:47;;;;;;;;;11.50;11.50;;;;;;;;4973690;28;45701;-65
2022/08/11 03:50:25;;;;;;;;;11.75;11.25;;;;;;;;4972223;28;46037;-64
2022/08/11 03:52:57;;;;;;;;;10.25;8.50;;;;;;;;4973125;28;45400;-65
2022/08/11 03:55:40;;;;;;;;;9.75;9.75;;;;;;;;4973369;28;45375;-65
2022/08/11 03:58:21;;;;;;;;;10.00;9.75;;;;;;;;4971549;28;45594;-65
2022/08/11 04:01:15;;;;;;;;;9.25;9.25;;;;;;;;4972980;28;46082;-65
2022/08/11 04:03:45;;;;;;;;;9.00;9.00;;;;;;;;4959829;28;45548;-65
2022/08/11 04:06:16;;;;;;;;;10.00;10.00;;;;;;;;4953855;28;45460;-65
2022/08/11 04:08:41;;;;;;;;;10.00;10.00;;;;;;;;4953530;28;45513;-65
2022/08/11 04:11:10;;;;;;;;;9.75;9.75;;;;;;;;4952278;28;47546;-65
2022/08/11 04:13:53;;;;;;;;;9.25;9.25;;;;;;;;4953560;28;45456;-64
2022/08/11 04:16:30;;;;;;;;;10.00;9.00;;;;;;;;4953715;28;45450;-65
2022/08/11 04:19:14;;;;;;;;;11.25;10.25;;;;;;;;4963311;28;45605;-64
2022/08/11 04:21:42;;;;;;;;;9.00;9.00;;;;;;;;4971411;28;45515;-65
2022/08/11 04:24:07;;;;;;;;;9.25;9.25;;;;;;;;4970717;28;45393;-64
2022/08/11 04:26:32;;;;;;;;;10.25;10.25;;;;;;;;4971946;28;45553;-64
2022/08/11 04:29:13;;;;;;;;;8.00;8.00;;;;;;;;4972332;28;45348;-65
2022/08/11 04:31:59;;;;;;;;;9.75;9.75;;;;;;;;4972167;28;46409;-65
2022/08/11 04:34:31;;;;;;;;;11.00;10.50;;;;;;;;4972682;28;45492;-65
2022/08/11 04:40:01;;;;;;;;;10.00;9.50;;;;;;;;4953330;28;45485;-65
2022/08/11 04:45:42;;;;;;;;;9.00;9.00;;;;;;;;4953073;28;45333;-65
2022/08/11 05:02:22;;;;;;;;;10.00;10.00;;;;;;;;4955384;28;45414;-64
2022/08/11 05:08:12;;;;;;;;;8.25;8.25;;;;;;;;4975469;28;45498;-65
2022/08/11 05:10:52;;;;;;;;;11.75;11.75;;;;;;;;4963417;28;45544;-65
2022/08/11 05:35:45;;;;;;;;;11.00;11.00;;;;;;;;4975444;28;45496;-64
2022/08/11 05:57:46;;;;;;;;;11.25;10.00;;;;;;;;4974690;28;45426;-61
2022/08/11 06:00:13;;;;;;;;;9.50;9.50;;;;;;;;4972895;28;45331;-60
2022/08/11 06:02:43;;;;;;;;;9.00;9.00;;;;;;;;4970643;28;45389;-61
2022/08/11 06:05:09;;;;;;;;;8.75;8.75;;;;;;;;4953806;28;45481;-62
2022/08/11 06:07:34;;;;;;;;;9.00;9.00;;;;;;;;4970246;28;45431;-62
2022/08/11 06:10:00;;;;;;;;;10.75;10.75;;;;;;;;4974476;28;45519;-62
2022/08/11 06:12:31;;;;;;;;;10.00;10.00;;;;;;;;4973050;28;45785;-62
2022/08/11 06:15:00;;;;;;;;;10.00;10.00;;;;;;;;4972240;28;45404;-62
2022/08/11 06:17:29;;;;;;;;;9.25;9.00;;;;;;;;4970674;28;45567;-65
2022/08/11 06:19:59;;;;;;;;;10.50;10.50;;;;;;;;4954596;28;46018;-65
2022/08/11 06:22:24;;;;;;;;;11.00;10.50;;;;;;;;4956749;28;45458;-65
2022/08/11 06:24:52;;;;;;;;;9.00;9.00;;;;;;;;4955019;28;45488;-64
2022/08/11 06:27:19;;;;;;;;;9.75;9.75;;;;;;;;4953358;28;45445;-64
2022/08/11 06:29:47;;;;;;;;;11.75;11.75;;;;;;;;4954721;28;46504;-64
2022/08/11 06:32:14;;;;;;;;;10.50;10.50;;;;;;;;4954778;28;45430;-65
2022/08/11 06:34:49;;;;;;;;;10.00;10.00;;;;;;;;4954877;28;45396;-64
2022/08/11 06:37:21;;;;;;;;;9.75;9.75;;;;;;;;4954534;28;45472;-64
2022/08/11 06:39:56;;;;;;;;;9.00;9.00;;;;;;;;4954392;28;45464;-65
2022/08/11 06:42:35;;;;;;;;;10.50;10.25;;;;;;;;4954329;28;45365;-65
2022/08/11 06:45:07;;;;;;;;;11.25;10.00;;;;;;;;4954635;28;45348;-65
2022/08/11 06:47:33;;;;;;;;;9.75;9.75;;;;;;;;4954486;28;45498;-65
2022/08/11 06:52:45;;;;;;;;;11.50;10.00;;;;;;;;4954557;28;45469;-65
2022/08/11 06:55:14;;;;;;;;;11.75;11.75;;;;;;;;4954479;28;45490;-64
2022/08/11 07:00:28;;;;;;;;;10.75;10.75;;;;;;;;4954277;28;45463;-64
2022/08/11 07:02:59;;;;;;;;;8.75;8.75;;;;;;;;4954080;28;45452;-64
2022/08/11 07:05:36;;;;;;;;;10.00;10.00;;;;;;;;4954553;28;45429;-65
2022/08/11 07:17:23;;;;;;;;;8.50;8.50;;;;;;;;4953783;28;45427;-65
2022/08/11 07:31:12;;;;;;;;;10.75;10.75;;;;;;;;4954080;28;45361;-64
2022/08/11 07:33:50;;;;;;;;;10.25;10.25;;;;;;;;4953914;28;45517;-65
2022/08/11 07:36:16;;;;;;;;;11.00;10.00;;;;;;;;4953895;28;45450;-64
2022/08/11 07:38:49;;;;;;;;;10.25;10.25;;;;;;;;4954055;28;45490;-64
2022/08/11 07:41:16;;;;;;;;;11.00;10.50;;;;;;;;4953868;28;45473;-64
2022/08/11 07:43:43;;;;;;;;;12.00;11.00;;;;;;;;4953600;28;45466;-65
2022/08/11 07:54:23;;;;;;;;;9.75;9.75;;;;;;;;4953511;28;45368;-65
2022/08/11 07:56:49;;;;;;;;;10.25;10.25;;;;;;;;4953705;28;45441;-65
2022/08/11 08:18:27;;;;;;;;;9.50;9.50;;;;;;;;4953361;28;45570;-64
2022/08/11 08:20:54;;;;;;;;;10.50;10.50;;;;;;;;4953667;28;45399;-64
2022/08/11 08:23:31;;;;;;;;;7.00;7.00;;;;;;;;4954086;28;45394;-65
2022/08/11 08:26:00;;;;;;;;;20.25;17.75;;;;;;;;4953189;28;46173;-65
2022/08/11 08:28:25;;;;;;;;;9.25;9.25;;;;;;;;4953343;28;45417;-64
2022/08/11 08:30:51;;;;;;;;;9.00;9.00;;;;;;;;4953195;28;45492;-64
2022/08/11 08:33:22;;;;;;;;;9.25;9.25;;;;;;;;4953285;28;45425;-65
2022/08/11 08:35:49;;;;;;;;;11.00;11.00;;;;;;;;4952926;28;45381;-65
2022/08/11 08:38:15;;;;;;;;;10.75;10.75;;;;;;;;4955759;28;45405;-65
2022/08/11 08:40:42;;;;;;;;;27.00;24.00;;;;;;;;4956254;28;45439;-64
2022/08/11 08:43:11;;;;;;;;;11.00;11.00;;;;;;;;4956102;28;45537;-64
2022/08/11 08:45:38;;;;;;;;;10.75;10.25;;;;;;;;4955779;28;46322;-64
2022/08/11 08:48:07;;;;;;;;;10.75;10.75;;;;;;;;4956401;28;45512;-64
2022/08/11 08:53:21;;;;;;;;;8.75;8.75;;;;;;;;4956076;28;45382;-65
2022/08/11 08:55:47;;;;;;;;;19.67;17.33;;;;;;;;4955568;28;46138;-64
2022/08/11 08:58:14;;;;;;;;;12.00;12.00;;;;;;;;4955854;28;45451;-64
2022/08/11 09:00:43;;;;;;;;;8.00;8.00;;;;;;;;4955979;28;45438;-64
2022/08/11 09:03:08;;;;;;;;;9.50;8.75;;;;;;;;4955694;28;45405;-65
2022/08/11 09:05:34;;;;;;;;;9.50;9.00;;;;;;;;4955557;28;45480;-64
2022/08/11 09:08:00;;;;;;;;;9.00;9.00;;;;;;;;4955840;28;45366;-65
2022/08/11 09:10:25;;;;;;;;;8.00;8.00;;;;;;;;4955597;28;45403;-64
2022/08/11 09:12:51;;;;;;;;;9.00;9.00;;;;;;;;4955569;28;45473;-65
2022/08/11 09:15:17;;;;;;;;;9.00;8.25;;;;;;;;4955766;28;46323;-64
2022/08/11 09:17:45;;;;;;;;;13.00;12.50;;;;;;;;4955482;28;45481;-64
2022/08/11 09:20:19;;;;;;;;;9.50;8.50;;;;;;;;4955751;28;45402;-65
2022/08/11 09:28:17;;;;;;;;;7.25;7.25;;;;;;;;4955579;28;45469;-65
2022/08/11 09:30:43;;;;;;;;;9.50;8.75;;;;;;;;4954867;27;45577;-65
2022/08/11 09:33:10;;;;;;;;;12.00;10.00;;;;;;;;4955671;28;45470;-64
2022/08/11 09:35:37;;;;;;;;;10.25;9.25;;;;;;;;4955244;28;45940;-64
2022/08/11 09:40:48;;;;;;;;;7.25;7.25;;;;;;;;4955833;28;45485;-65
2022/08/11 09:46:03;;;;;;;;;9.00;7.75;;;;;;;;4954973;28;45454;-64
2022/08/11 09:48:30;;;;;;;;;7.00;7.00;;;;;;;;4954145;28;45433;-65
2022/08/11 09:50:57;;;;;;;;;13.00;11.75;;;;;;;;4954584;28;45420;-65
2022/08/11 09:53:24;;;;;;;;;8.00;8.00;;;;;;;;4955482;28;45562;-65
2022/08/11 09:55:49;;;;;;;;;10.50;9.25;;;;;;;;4955361;28;45449;-65
2022/08/11 09:58:16;;;;;;;;;8.75;8.50;;;;;;;;4955077;28;45480;-65
2022/08/11 10:00:43;;;;;;;;;9.75;7.00;;;;;;;;4955470;28;45461;-65
2022/08/11 10:03:16;;;;;;;;;9.25;9.25;;;;;;;;4955165;28;45391;-65
2022/08/11 10:08:29;;;;;;;;;8.00;8.00;;;;;;;;4955087;28;45371;-65
2022/08/11 10:10:55;;;;;;;;;7.50;7.50;;;;;;;;4954927;28;45459;-64
2022/08/11 10:13:24;;;;;;;;;9.25;9.25;;;;;;;;4955036;28;45661;-65
2022/08/11 10:15:51;;;;;;;;;10.50;10.50;;;;;;;;4954971;28;45541;-66
2022/08/11 10:21:05;;;;;;;;;7.50;7.50;;;;;;;;4954687;28;45435;-62
2022/08/11 10:33:58;;;;;;;;;9.60;9.60;;;;;;;;4954754;28;45422;-66
2022/08/11 10:34:39;;;;;;;;;8.00;8.00;;;;;;;;4954830;28;45377;-64
2022/08/11 10:37:05;;;;;;;;;7.75;7.75;;;;;;;;4953288;28;45487;-64
2022/08/11 10:39:30;;;;;;;;;8.00;7.80;;;;;;;;4954384;28;45424;-64
2022/08/11 10:44:42;;;;;;;;;8.00;8.00;;;;;;;;4954550;28;45509;-64
2022/08/11 11:00:59;;;;;;;;;9.00;8.40;;;;;;;;4951894;28;45453;-64
2022/08/11 11:03:26;;;;;;;;;12.25;11.00;;;;;;;;4952750;28;45439;-67
2022/08/11 11:05:53;;;;;;;;;14.25;14.00;;;;;;;;4954349;28;45353;-64
2022/08/11 11:11:05;;;;;;;;;62.00;49.33;;;;;;;;4954897;28;45509;-64
2022/08/11 11:19:02;;;;;;;;;45.00;39.00;;;;;;;;4953536;28;45539;-65
2022/08/11 11:21:28;;;;;;;;;31.00;29.67;;;;;;;;4963572;28;45457;-65
2022/08/11 11:24:13;;;;;;;;;8.75;8.75;;;;;;;;4966726;28;45327;-64
2022/08/11 11:26:44;;;;;;;;;7.75;6.50;;;;;;;;4963539;28;45419;-64
2022/08/11 11:29:09;;;;;;;;;10.25;10.25;;;;;;;;4973783;28;45367;-64
2022/08/11 11:31:45;;;;;;;;;10.25;10.25;;;;;;;;4956689;28;45416;-65
2022/08/11 11:34:22;;;;;;;;;9.00;9.00;;;;;;;;4954108;28;45493;-65
2022/08/11 11:36:49;;;;;;;;;9.00;9.00;;;;;;;;4956250;28;45470;-65
2022/08/11 11:39:21;;;;;;;;;10.00;10.00;;;;;;;;4962295;28;45434;-65
2022/08/11 11:41:51;;;;;;;;;10.25;9.75;;;;;;;;4972127;28;45546;-65
2022/08/11 11:44:18;;;;;;;;;8.60;8.60;;;;;;;;4957930;28;45365;-65
2022/08/11 11:46:44;;;;;;;;;12.50;11.00;;;;;;;;4955864;28;45418;-65
2022/08/11 11:49:09;;;;;;;;;9.00;9.00;;;;;;;;4963376;28;45566;-65
2022/08/11 11:51:36;;;;;;;;;10.75;10.50;;;;;;;;4953908;28;45469;-64
2022/08/11 11:54:03;;;;;;;;;8.00;8.00;;;;;;;;4990256;28;45434;-64
2022/08/11 11:56:29;;;;;;;;;10.75;10.75;;;;;;;;4992363;28;45670;-64
2022/08/11 12:01:38;;;;;;;;;10.80;9.40;;;;;;;;4991409;28;45414;-64
2022/08/11 12:04:06;;;;;;;;;12.25;12.25;;;;;;;;4992165;28;45582;-64
2022/08/11 12:06:32;;;;;;;;;10.25;10.25;;;;;;;;4991937;28;45370;-64
2022/08/11 12:08:58;;;;;;;;;11.00;11.00;;;;;;;;4992536;28;46240;-64
2022/08/11 12:14:24;;;;;;;;;11.50;11.50;;;;;;;;5040038;28;45466;-64
2022/08/11 12:16:50;;;;;;;;;10.25;10.25;;;;;;;;4995399;28;45369;-64
2022/08/11 12:19:21;;;;;;;;;11.25;10.25;;;;;;;;4994953;28;45412;-64
2022/08/11 12:27:20;;;;;;;;;8.75;8.75;;;;;;;;4995342;28;45437;-64
2022/08/11 12:29:47;;;;;;;;;11.25;10.75;;;;;;;;4995091;28;45436;-65
2022/08/11 12:32:12;;;;;;;;;8.40;8.40;;;;;;;;4995430;28;45409;-64
2022/08/11 12:34:37;;;;;;;;;24.50;24.00;;;;;;;;4995253;28;45363;-64
2022/08/11 12:37:05;;;;;;;;;10.50;10.50;;;;;;;;4995308;28;45406;-65
2022/08/11 12:53:26;;;;;;;;;11.40;9.80;;;;;;;;4995140;28;45432;-64
2022/08/11 12:58:39;;;;;;;;;10.75;10.00;;;;;;;;4995211;28;45440;-65
2022/08/11 13:06:32;;;;;;;;;8.60;8.60;;;;;;;;4995179;28;45476;-65
2022/08/11 13:08:58;;;;;;;;;8.80;8.00;;;;;;;;4995216;28;45449;-65
2022/08/11 13:14:07;;;;;;;;;9.40;9.40;;;;;;;;4995043;28;45616;-65
2022/08/11 13:17:19;;;;;;;;;10.50;10.50;;;;;;;;4995011;28;45630;-65
2022/08/11 13:19:20;;;;;;;;;9.00;9.00;;;;;;;;4994678;28;45422;-65
2022/08/11 13:21:47;;;;;;;;;9.00;9.00;;;;;;;;4994504;28;45434;-65
2022/08/11 13:24:13;;;;;;;;;10.80;10.40;;;;;;;;4995207;28;45417;-62
2022/08/11 13:26:38;;;;;;;;;9.50;8.75;;;;;;;;4993536;28;45428;-62
2022/08/11 13:29:04;;;;;;;;;7.75;7.75;;;;;;;;4994643;28;45498;-65
2022/08/11 13:31:29;;;;;;;;;8.75;8.75;;;;;;;;4994640;28;46112;-62
2022/08/11 13:33:55;;;;;;;;;13.75;13.50;;;;;;;;4994594;28;45604;-65
2022/08/11 13:36:24;;;;;;;;;8.25;8.25;;;;;;;;4994860;28;45500;-62
2022/08/11 13:38:52;;;;;;;;;7.80;7.80;;;;;;;;4994776;28;45358;-65
2022/08/11 13:44:02;;;;;;;;;11.20;10.20;;;;;;;;4994528;28;45408;-65
2022/08/11 13:46:27;;;;;;;;;11.00;11.00;;;;;;;;4994516;28;45366;-65
2022/08/11 13:48:54;;;;;;;;;9.75;9.75;;;;;;;;4994443;28;45404;-65
2022/08/11 13:51:35;;;;;;;;;9.20;9.20;;;;;;;;4994303;28;45422;-65
2022/08/11 13:54:03;;;;;;;;;10.00;10.00;;;;;;;;4994076;28;45536;-64
2022/08/11 13:56:29;;;;;;;;;10.20;8.80;;;;;;;;4994539;28;45500;-65
2022/08/11 13:58:55;;;;;;;;;9.00;9.00;;;;;;;;4994413;28;45588;-65
2022/08/11 14:01:23;;;;;;;;;9.50;9.50;;;;;;;;4992916;28;47195;-64
2022/08/11 14:03:49;;;;;;;;;10.60;9.80;;;;;;;;4994258;28;45502;-63
2022/08/11 14:06:16;;;;;;;;;10.20;10.20;;;;;;;;4994465;28;45481;-65
2022/08/11 14:08:42;;;;;;;;;10.75;10.75;;;;;;;;4994294;28;45614;-65
2022/08/11 14:13:51;;;;;;;;;9.00;9.00;;;;;;;;4994300;28;45444;-65
2022/08/11 14:16:27;;;;;;;;;10.25;10.25;;;;;;;;4993054;28;45482;-64
2022/08/11 14:18:54;;;;;;;;;8.60;8.60;;;;;;;;4994167;28;45461;-62
2022/08/11 14:24:06;;;;;;;;;10.20;8.80;;;;;;;;4994875;28;45383;-64
2022/08/11 14:26:37;;;;;;;;;9.00;9.00;;;;;;;;4994015;28;45464;-64
2022/08/11 14:29:08;;;;;;;;;10.25;10.25;;;;;;;;4993910;28;45530;-65
2022/08/11 14:31:35;;;;;;;;;9.00;8.00;;;;;;;;4993912;28;45428;-65
2022/08/11 14:34:02;;;;;;;;;11.00;9.80;;;;;;;;4993507;28;45430;-64
2022/08/11 14:36:29;;;;;;;;;8.80;8.80;;;;;;;;4994148;28;45473;-64
2022/08/11 14:38:55;;;;;;;;;9.00;9.00;;;;;;;;4992752;28;45474;-64
2022/08/11 14:47:04;;;;;;;;;10.60;9.60;;;;;;;;4993974;28;45513;-64
2022/08/11 14:49:30;;;;;;;;;8.60;8.60;;;;;;;;4993941;28;45473;-64
2022/08/11 14:51:56;;;;;;;;;9.50;9.50;;;;;;;;4993734;28;46018;-65
2022/08/11 14:57:08;;;;;;;;;12.00;10.80;;;;;;;;4993983;28;45473;-64
2022/08/11 14:59:34;;;;;;;;;13.25;11.75;;;;;;;;4992452;28;45504;-65
2022/08/11 15:04:45;;;;;;;;;9.00;9.00;;;;;;;;4993477;28;45488;-65
2022/08/11 15:07:10;;;;;;;;;11.00;10.50;;;;;;;;4993591;28;45454;-65
2022/08/11 15:09:37;;;;;;;;;11.00;9.50;;;;;;;;4993231;28;45387;-64
2022/08/11 15:12:08;;;;;;;;;12.00;12.00;;;;;;;;4993099;28;46168;-65
2022/08/11 15:17:19;;;;;;;;;9.00;9.00;;;;;;;;4993270;28;45362;-65
2022/08/11 15:25:13;;;;;;;;;11.60;10.80;;;;;;;;4993834;28;45437;-64
2022/08/11 15:38:43;;;;;;;;;12.60;11.20;;;;;;;;4993149;28;45473;-64
2022/08/11 15:46:49;;;;;;;;;14.60;14.00;;;;;;;;4991606;28;45463;-64
2022/08/11 15:49:21;;;;;;;;;12.20;12.20;;;;;;;;4993190;28;45391;-64
2022/08/11 15:51:55;;;;;;;;;8.50;8.50;;;;;;;;4993125;28;45445;-64
2022/08/11 15:54:23;;;;;;;;;12.00;12.00;;;;;;;;4992999;28;46282;-64
2022/08/11 15:56:50;;;;;;;;;11.20;11.20;;;;;;;;4992797;28;45352;-64
2022/08/11 16:04:46;;;;;;;;;11.00;11.00;;;;;;;;4992670;28;45729;-64
2022/08/11 16:07:13;;;;;;;;;10.75;10.75;;;;;;;;4992631;28;45437;-64
2022/08/11 16:09:43;;;;;;;;;11.20;11.20;;;;;;;;4991788;28;45467;-64
2022/08/11 16:12:10;;;;;;;;;13.25;12.00;;;;;;;;4992639;28;45409;-65
2022/08/11 16:17:24;;;;;;;;;11.40;9.60;;;;;;;;4992382;28;45616;-65
2022/08/11 16:19:52;;;;;;;;;9.80;9.80;;;;;;;;4992685;28;45454;-65
2022/08/11 16:22:20;;;;;;;;;12.25;12.25;;;;;;;;4992613;28;45458;-64
2022/08/11 16:24:47;;;;;;;;;11.50;11.50;;;;;;;;4992966;28;46090;-64
2022/08/11 16:27:14;;;;;;;;;11.60;11.60;;;;;;;;4992493;28;45375;-65
2022/08/11 16:29:44;;;;;;;;;10.40;10.40;;;;;;;;4992689;28;45446;-64
2022/08/11 16:32:19;;;;;;;;;11.75;11.75;;;;;;;;4991156;28;45407;-64
2022/08/11 16:40:16;;;;;;;;;11.20;11.20;;;;;;;;4992445;28;45377;-64
2022/08/11 16:48:12;;;;;;;;;10.20;10.20;;;;;;;;4992064;28;45493;-64
2022/08/11 16:50:38;;;;;;;;;11.50;11.50;;;;;;;;4991987;28;45413;-65
2022/08/11 16:53:04;;;;;;;;;9.50;9.50;;;;;;;;4991964;28;45464;-65
2022/08/11 16:55:33;;;;;;;;;10.50;10.50;;;;;;;;4991945;28;45993;-65
2022/08/11 17:00:43;;;;;;;;;13.20;13.20;;;;;;;;4995151;28;45368;-65
2022/08/11 17:14:42;;;;;;;;;11.00;11.00;;;;;;;;4995068;28;45378;-65
2022/08/11 17:17:13;;;;;;;;;10.25;9.25;;;;;;;;4994472;28;45457;-65
2022/08/11 17:19:40;;;;;;;;;9.00;9.00;;;;;;;;4994684;28;45426;-65
2022/08/11 17:24:51;;;;;;;;;10.25;8.75;;;;;;;;4995310;28;45453;-65
2022/08/11 17:27:18;;;;;;;;;11.75;11.50;;;;;;;;4994701;28;46369;-64
2022/08/11 17:29:45;;;;;;;;;10.00;10.00;;;;;;;;4994741;28;45382;-64
2022/08/11 17:35:32;;;;;;;;;10.75;10.75;;;;;;;;4994776;28;45528;-65
2022/08/11 17:38:00;;;;;;;;;9.60;9.60;;;;;;;;4994579;28;46164;-64
2022/08/11 17:40:27;;;;;;;;;11.60;10.60;;;;;;;;4994620;28;45548;-64
2022/08/11 17:48:24;;;;;;;;;11.00;11.00;;;;;;;;4994557;28;45789;-64
2022/08/11 17:50:52;;;;;;;;;10.00;10.00;;;;;;;;4994163;28;45456;-65
2022/08/11 18:01:34;;;;;;;;;11.60;10.00;;;;;;;;4972980;28;45396;-67
2022/08/11 18:04:00;;;;;;;;;10.40;9.60;;;;;;;;4974648;28;45501;-67
2022/08/11 18:06:28;;;;;;;;;12.00;12.00;;;;;;;;4974982;28;45534;-66
